Time;durP1;ratioP1;P1;durP2;ratioP2;P2;SDS_P1;SDS_P2;PMS_P1;PMS_P2;Temp;Humidity;BMP_temperature;BMP_pressure;BME280_temperature;BME280_humidity;BME280_pressure;Samples;Min_cycle;Max_cycle;Signal;HPM_P1;HPM_P2
2021/03/23 00:01:22;;;;;;;;;;;20.50;28.40;;;;;;482420;246;1331;-68
2021/03/23 00:03:23;;;;;;;;;;;20.50;28.40;;;;;;482434;245;1043;-68
2021/03/23 00:05:25;;;;;;;;;;;20.60;28.40;;;;;;482504;245;1174;-67
2021/03/23 00:07:26;;;;;;;;;;;20.60;28.30;;;;;;482542;247;1210;-67
2021/03/23 00:09:27;;;;;;;;;;;20.60;28.30;;;;;;482542;246;1067;-68
2021/03/23 00:11:28;;;;;;;;;;;20.50;28.30;;;;;;482440;246;1270;-68
2021/03/23 00:13:30;;;;;;;;;;;20.60;28.40;;;;;;482633;247;2196;-68
2021/03/23 00:15:31;;;;;;;;;;;20.60;28.40;;;;;;482616;246;1284;-67
2021/03/23 00:17:32;;;;;;;;;;;20.60;28.30;;;;;;482414;246;1227;-67
2021/03/23 00:19:34;;;;;;;;;;;20.60;28.30;;;;;;482461;246;1032;-68
2021/03/23 00:21:35;;;;;;;;;;;20.50;28.40;;;;;;482253;247;1174;-68
2021/03/23 00:23:37;;;;;;;;;;;20.50;28.40;;;;;;482389;246;1316;-68
2021/03/23 00:25:37;;;;;;;;;;;20.50;28.40;;;;;;482441;246;1209;-68
2021/03/23 00:27:39;;;;;;;;;;;20.70;28.30;;;;;;482472;246;1152;-68
2021/03/23 00:29:40;;;;;;;;;;;20.60;28.20;;;;;;482556;246;1035;-67
2021/03/23 00:31:41;;;;;;;;;;;20.60;28.30;;;;;;482381;247;1238;-68
2021/03/23 00:33:42;;;;;;;;;;;20.50;28.40;;;;;;482760;246;2186;-68
2021/03/23 00:35:44;;;;;;;;;;;20.50;28.40;;;;;;482375;247;992;-67
2021/03/23 00:37:45;;;;;;;;;;;20.50;28.50;;;;;;482433;246;1218;-67
2021/03/23 00:39:46;;;;;;;;;;;20.60;28.40;;;;;;482464;245;1104;-68
2021/03/23 00:41:48;;;;;;;;;;;20.50;28.40;;;;;;482513;246;1276;-67
2021/03/23 00:43:49;;;;;;;;;;;20.50;28.40;;;;;;482604;246;1042;-68
2021/03/23 00:45:50;;;;;;;;;;;20.40;28.40;;;;;;482403;246;1258;-68
2021/03/23 00:47:51;;;;;;;;;;;20.50;28.50;;;;;;482492;247;1142;-67
2021/03/23 00:49:53;;;;;;;;;;;20.40;28.50;;;;;;482638;245;1119;-68
2021/03/23 00:51:54;;;;;;;;;;;20.40;28.50;;;;;;482380;246;1204;-68
2021/03/23 00:53:55;;;;;;;;;;;20.40;28.50;;;;;;482507;247;2216;-68
2021/03/23 00:55:59;;;;;;;;;;;20.30;28.50;;;;;;482383;246;1408;-67
2021/03/23 00:57:58;;;;;;;;;;;20.40;28.60;;;;;;482284;247;1370;-67
2021/03/23 00:59:59;;;;;;;;;;;20.40;28.50;;;;;;482499;247;1048;-67
2021/03/23 01:02:00;;;;;;;;;;;20.40;28.50;;;;;;482442;246;1222;-68
2021/03/23 01:04:02;;;;;;;;;;;20.40;28.50;;;;;;482471;246;1070;-67
2021/03/23 01:06:03;;;;;;;;;;;20.40;28.50;;;;;;482388;247;1195;-68
2021/03/23 01:08:04;;;;;;;;;;;20.40;28.60;;;;;;482488;246;1119;-68
2021/03/23 01:10:05;;;;;;;;;;;20.30;28.60;;;;;;482569;247;1056;-67
2021/03/23 01:12:08;;;;;;;;;;;20.40;28.60;;;;;;482559;247;1093;-68
2021/03/23 01:14:09;;;;;;;;;;;20.30;28.60;;;;;;482485;247;2194;-69
2021/03/23 01:16:10;;;;;;;;;;;20.30;28.60;;;;;;482333;247;1052;-67
2021/03/23 01:18:11;;;;;;;;;;;20.40;28.60;;;;;;482588;246;1003;-68
2021/03/23 01:20:12;;;;;;;;;;;20.40;28.60;;;;;;482501;247;1075;-67
2021/03/23 01:22:14;;;;;;;;;;;20.30;28.60;;;;;;482500;245;1311;-67
2021/03/23 01:24:15;;;;;;;;;;;20.30;28.60;;;;;;482602;246;1105;-68
2021/03/23 01:26:16;;;;;;;;;;;20.30;28.70;;;;;;482438;246;1042;-69
2021/03/23 01:28:18;;;;;;;;;;;20.30;28.70;;;;;;482525;246;1078;-67
2021/03/23 01:30:19;;;;;;;;;;;20.40;28.60;;;;;;482379;246;1040;-67
2021/03/23 01:32:20;;;;;;;;;;;20.30;28.60;;;;;;482487;246;1465;-67
2021/03/23 01:34:21;;;;;;;;;;;20.30;28.60;;;;;;482470;246;2133;-68
2021/03/23 01:36:23;;;;;;;;;;;20.30;28.60;;;;;;482553;246;1037;-68
2021/03/23 01:38:24;;;;;;;;;;;20.30;28.60;;;;;;482418;247;1177;-67
2021/03/23 01:40:25;;;;;;;;;;;20.30;28.60;;;;;;482427;246;1130;-68
2021/03/23 01:42:26;;;;;;;;;;;20.30;28.60;;;;;;482518;247;1094;-67
2021/03/23 01:44:28;;;;;;;;;;;20.30;28.60;;;;;;482492;247;1062;-68
2021/03/23 01:46:29;;;;;;;;;;;20.30;28.60;;;;;;482456;246;1310;-68
2021/03/23 01:48:30;;;;;;;;;;;20.30;28.60;;;;;;482452;246;1548;-67
2021/03/23 01:50:32;;;;;;;;;;;20.30;28.70;;;;;;482388;247;999;-68
2021/03/23 01:52:33;;;;;;;;;;;20.30;28.60;;;;;;482515;247;1143;-68
2021/03/23 01:54:34;;;;;;;;;;;20.30;28.60;;;;;;482504;246;2137;-68
2021/03/23 01:56:35;;;;;;;;;;;20.30;28.60;;;;;;482449;247;1213;-67
2021/03/23 01:58:37;;;;;;;;;;;20.20;28.60;;;;;;482408;246;1016;-68
2021/03/23 02:00:38;;;;;;;;;;;20.30;28.60;;;;;;482437;247;1141;-68
2021/03/23 02:02:39;;;;;;;;;;;20.30;28.60;;;;;;482465;246;1181;-67
2021/03/23 02:04:41;;;;;;;;;;;20.20;28.60;;;;;;482578;246;1108;-68
2021/03/23 02:06:42;;;;;;;;;;;20.30;28.60;;;;;;482520;246;1126;-68
2021/03/23 02:08:43;;;;;;;;;;;20.20;28.60;;;;;;482495;246;1168;-67
2021/03/23 02:10:44;;;;;;;;;;;20.20;28.70;;;;;;482580;247;1228;-68
2021/03/23 02:12:46;;;;;;;;;;;20.20;28.60;;;;;;482541;246;1130;-68
2021/03/23 02:14:47;;;;;;;;;;;20.20;28.60;;;;;;482626;246;2157;-67
2021/03/23 02:16:48;;;;;;;;;;;20.20;28.60;;;;;;482561;247;1045;-67
2021/03/23 02:18:50;;;;;;;;;;;20.20;28.60;;;;;;482509;246;1059;-68
2021/03/23 02:20:51;;;;;;;;;;;20.20;28.60;;;;;;482450;246;1113;-68
2021/03/23 02:22:52;;;;;;;;;;;20.20;28.60;;;;;;482540;246;1376;-69
2021/03/23 02:24:53;;;;;;;;;;;20.30;28.60;;;;;;482578;246;1007;-68
2021/03/23 02:26:55;;;;;;;;;;;20.30;28.60;;;;;;482431;247;1146;-68
2021/03/23 02:28:56;;;;;;;;;;;20.30;28.60;;;;;;482514;246;1013;-67
2021/03/23 02:30:57;;;;;;;;;;;20.30;28.60;;;;;;482578;246;991;-68
2021/03/23 02:32:58;;;;;;;;;;;20.30;28.60;;;;;;482400;246;1166;-67
2021/03/23 02:35:00;;;;;;;;;;;20.20;28.50;;;;;;482423;247;2217;-68
2021/03/23 02:37:01;;;;;;;;;;;20.20;28.50;;;;;;482372;247;1119;-67
2021/03/23 02:39:02;;;;;;;;;;;20.30;28.50;;;;;;482484;246;1144;-68
2021/03/23 02:41:04;;;;;;;;;;;20.20;28.50;;;;;;482390;247;1118;-68
2021/03/23 02:43:05;;;;;;;;;;;20.30;28.50;;;;;;482574;247;1073;-68
2021/03/23 02:45:06;;;;;;;;;;;20.30;28.60;;;;;;482421;246;1045;-68
2021/03/23 02:47:07;;;;;;;;;;;20.30;28.60;;;;;;482493;247;1080;-68
2021/03/23 02:49:09;;;;;;;;;;;20.30;28.60;;;;;;482514;246;1074;-68
2021/03/23 02:51:10;;;;;;;;;;;20.30;28.60;;;;;;482607;246;1171;-68
2021/03/23 02:53:11;;;;;;;;;;;20.30;28.60;;;;;;482509;247;1175;-67
2021/03/23 02:55:12;;;;;;;;;;;20.30;28.50;;;;;;482406;247;2213;-68
2021/03/23 02:57:14;;;;;;;;;;;20.30;28.60;;;;;;482355;247;1053;-68
2021/03/23 02:59:15;;;;;;;;;;;20.30;28.60;;;;;;482495;246;1135;-68
2021/03/23 03:01:16;;;;;;;;;;;20.30;28.60;;;;;;482375;246;1180;-67
2021/03/23 03:03:18;;;;;;;;;;;20.20;28.60;;;;;;482462;246;1041;-68
2021/03/23 03:05:19;;;;;;;;;;;20.30;28.60;;;;;;482403;247;1202;-68
2021/03/23 03:07:20;;;;;;;;;;;20.30;28.60;;;;;;482622;246;1134;-67
2021/03/23 03:09:21;;;;;;;;;;;20.20;28.50;;;;;;482456;246;1166;-68
2021/03/23 03:11:23;;;;;;;;;;;20.30;28.50;;;;;;482423;247;1187;-67
2021/03/23 03:13:24;;;;;;;;;;;20.30;28.60;;;;;;482383;247;1075;-68
2021/03/23 03:15:25;;;;;;;;;;;20.30;28.60;;;;;;482555;246;2195;-67
2021/03/23 03:17:27;;;;;;;;;;;20.30;28.60;;;;;;482351;247;1182;-69
2021/03/23 03:19:28;;;;;;;;;;;20.30;28.50;;;;;;482442;246;1069;-68
2021/03/23 03:21:29;;;;;;;;;;;20.30;28.50;;;;;;482487;244;1258;-67
2021/03/23 03:23:30;;;;;;;;;;;20.30;28.50;;;;;;482436;246;1141;-68
2021/03/23 03:25:32;;;;;;;;;;;20.30;28.60;;;;;;482566;246;1124;-68
2021/03/23 03:27:33;;;;;;;;;;;20.20;28.60;;;;;;482473;246;1126;-68
2021/03/23 03:29:34;;;;;;;;;;;20.20;28.60;;;;;;482448;247;1058;-68
2021/03/23 03:31:36;;;;;;;;;;;20.20;28.60;;;;;;482379;246;1049;-68
2021/03/23 03:33:37;;;;;;;;;;;20.30;28.60;;;;;;482417;246;1055;-68
2021/03/23 03:35:38;;;;;;;;;;;20.20;28.60;;;;;;482519;246;2141;-68
2021/03/23 03:37:39;;;;;;;;;;;20.10;28.60;;;;;;482397;247;1277;-68
2021/03/23 03:39:41;;;;;;;;;;;20.20;28.70;;;;;;482486;247;1216;-67
2021/03/23 03:41:42;;;;;;;;;;;20.10;28.70;;;;;;482559;247;1120;-68
2021/03/23 03:43:43;;;;;;;;;;;20.10;28.70;;;;;;482443;247;1100;-68
2021/03/23 03:45:44;;;;;;;;;;;20.10;28.80;;;;;;482498;246;1102;-67
2021/03/23 03:47:46;;;;;;;;;;;20.10;28.70;;;;;;482612;245;1291;-68
2021/03/23 03:49:47;;;;;;;;;;;20.20;28.70;;;;;;482530;246;1081;-68
2021/03/23 03:51:48;;;;;;;;;;;20.20;28.70;;;;;;482512;246;1151;-68
2021/03/23 03:53:50;;;;;;;;;;;20.20;28.60;;;;;;482386;247;1183;-68
2021/03/23 03:55:51;;;;;;;;;;;20.20;28.60;;;;;;482563;246;2145;-68
2021/03/23 03:57:52;;;;;;;;;;;20.20;28.70;;;;;;482386;247;1042;-68
2021/03/23 03:59:53;;;;;;;;;;;20.20;28.70;;;;;;482535;245;1062;-67
2021/03/23 04:01:55;;;;;;;;;;;20.20;28.70;;;;;;482424;247;1050;-67
2021/03/23 04:03:56;;;;;;;;;;;20.10;28.70;;;;;;482452;246;1109;-67
2021/03/23 04:05:57;;;;;;;;;;;20.10;28.70;;;;;;482527;246;1289;-68
2021/03/23 04:07:59;;;;;;;;;;;20.10;28.80;;;;;;482438;246;1271;-68
2021/03/23 04:10:00;;;;;;;;;;;20.10;28.80;;;;;;482495;246;1203;-68
2021/03/23 04:12:01;;;;;;;;;;;20.20;28.80;;;;;;482509;246;1154;-67
2021/03/23 04:14:02;;;;;;;;;;;20.10;28.70;;;;;;482513;247;1053;-67
2021/03/23 04:16:04;;;;;;;;;;;20.20;28.70;;;;;;482349;246;2137;-68
2021/03/23 04:18:05;;;;;;;;;;;20.20;28.70;;;;;;482495;247;1406;-68
2021/03/23 04:20:06;;;;;;;;;;;20.10;28.70;;;;;;482462;246;1038;-67
2021/03/23 04:22:08;;;;;;;;;;;20.10;28.80;;;;;;482351;246;1177;-67
2021/03/23 04:24:09;;;;;;;;;;;20.10;28.80;;;;;;482428;247;1151;-67
2021/03/23 04:26:10;;;;;;;;;;;20.10;28.80;;;;;;482409;247;1111;-67
2021/03/23 04:28:12;;;;;;;;;;;20.10;28.80;;;;;;482484;245;1290;-68
2021/03/23 04:30:13;;;;;;;;;;;20.10;28.80;;;;;;482531;246;1115;-68
2021/03/23 04:32:14;;;;;;;;;;;20.20;28.70;;;;;;482546;247;1123;-68
2021/03/23 04:34:15;;;;;;;;;;;20.20;28.70;;;;;;482392;245;1097;-67
2021/03/23 04:36:17;;;;;;;;;;;20.10;28.70;;;;;;482425;247;2177;-68
2021/03/23 04:38:18;;;;;;;;;;;20.20;28.70;;;;;;482599;246;1032;-68
2021/03/23 04:40:19;;;;;;;;;;;20.10;28.70;;;;;;482481;246;1169;-68
2021/03/23 04:42:20;;;;;;;;;;;20.20;28.70;;;;;;482546;246;1017;-67
2021/03/23 04:44:22;;;;;;;;;;;20.20;28.80;;;;;;482538;246;1066;-68
2021/03/23 04:46:23;;;;;;;;;;;20.20;28.70;;;;;;482601;246;1115;-68
2021/03/23 04:48:24;;;;;;;;;;;20.20;28.70;;;;;;482519;246;992;-68
2021/03/23 04:50:26;;;;;;;;;;;20.20;28.70;;;;;;482367;244;1359;-68
2021/03/23 04:52:27;;;;;;;;;;;20.20;28.70;;;;;;482460;247;1084;-67
2021/03/23 04:54:28;;;;;;;;;;;20.20;28.70;;;;;;482462;247;1209;-68
2021/03/23 04:56:29;;;;;;;;;;;20.20;28.70;;;;;;482276;246;2149;-67
2021/03/23 04:58:31;;;;;;;;;;;20.20;28.70;;;;;;482409;246;1097;-68
2021/03/23 05:00:32;;;;;;;;;;;20.20;28.80;;;;;;482394;246;1112;-68
2021/03/23 05:02:33;;;;;;;;;;;20.10;28.70;;;;;;482572;246;1044;-67
2021/03/23 05:04:35;;;;;;;;;;;20.10;28.80;;;;;;482457;247;1076;-67
2021/03/23 05:06:36;;;;;;;;;;;20.10;28.80;;;;;;482494;246;1083;-68
2021/03/23 05:08:37;;;;;;;;;;;20.10;28.70;;;;;;482498;246;1064;-67
2021/03/23 05:10:38;;;;;;;;;;;20.20;28.80;;;;;;482411;247;1183;-67
2021/03/23 05:12:40;;;;;;;;;;;20.00;28.80;;;;;;482530;246;1032;-67
2021/03/23 05:14:41;;;;;;;;;;;20.10;28.80;;;;;;482578;246;1070;-67
2021/03/23 05:16:42;;;;;;;;;;;20.10;28.70;;;;;;482667;247;2193;-67
2021/03/23 05:18:43;;;;;;;;;;;20.20;28.80;;;;;;482354;247;1075;-67
2021/03/23 05:20:45;;;;;;;;;;;20.20;28.70;;;;;;482311;247;1061;-67
2021/03/23 05:22:46;;;;;;;;;;;20.20;28.70;;;;;;482419;246;1066;-67
2021/03/23 05:24:47;;;;;;;;;;;20.20;28.70;;;;;;482312;247;1117;-67
2021/03/23 05:26:49;;;;;;;;;;;20.20;28.70;;;;;;482143;246;1232;-67
2021/03/23 05:28:50;;;;;;;;;;;20.30;28.60;;;;;;482268;246;1091;-67
2021/03/23 05:30:51;;;;;;;;;;;20.20;28.70;;;;;;482342;246;1044;-67
2021/03/23 05:32:52;;;;;;;;;;;20.20;28.70;;;;;;482239;247;1066;-67
2021/03/23 05:34:54;;;;;;;;;;;20.20;28.80;;;;;;482319;247;1152;-67
2021/03/23 05:36:55;;;;;;;;;;;20.10;28.70;;;;;;482011;246;2192;-67
2021/03/23 05:38:56;;;;;;;;;;;20.20;28.70;;;;;;482346;246;1085;-67
2021/03/23 05:40:57;;;;;;;;;;;20.10;28.70;;;;;;482386;246;1138;-67
2021/03/23 05:42:59;;;;;;;;;;;20.10;28.70;;;;;;482377;246;1313;-67
2021/03/23 05:45:01;;;;;;;;;;;20.10;28.80;;;;;;482288;246;1221;-67
2021/03/23 05:47:01;;;;;;;;;;;20.20;28.80;;;;;;482238;246;1313;-67
2021/03/23 05:49:03;;;;;;;;;;;20.20;28.80;;;;;;482182;246;1224;-67
2021/03/23 05:51:04;;;;;;;;;;;20.20;28.70;;;;;;482083;247;1096;-67
2021/03/23 05:53:05;;;;;;;;;;;20.20;28.70;;;;;;482165;247;1059;-67
2021/03/23 05:55:07;;;;;;;;;;;20.20;28.70;;;;;;482181;246;2144;-67
2021/03/23 05:57:08;;;;;;;;;;;20.20;28.80;;;;;;482209;247;1166;-67
2021/03/23 05:59:09;;;;;;;;;;;20.20;28.80;;;;;;482171;247;1060;-67
2021/03/23 06:01:11;;;;;;;;;;;20.10;28.80;;;;;;482232;246;1047;-67
2021/03/23 06:03:12;;;;;;;;;;;20.10;28.80;;;;;;482230;246;1098;-67
2021/03/23 06:05:13;;;;;;;;;;;20.10;28.80;;;;;;482240;246;1068;-67
2021/03/23 06:07:14;;;;;;;;;;;20.20;28.80;;;;;;482089;246;1078;-67
2021/03/23 06:09:16;;;;;;;;;;;20.10;28.80;;;;;;482105;246;1033;-67
2021/03/23 06:11:17;;;;;;;;;;;20.10;28.80;;;;;;482084;247;1161;-67
2021/03/23 06:13:18;;;;;;;;;;;20.20;28.90;;;;;;482213;246;1083;-67
2021/03/23 06:15:19;;;;;;;;;;;20.20;28.90;;;;;;482231;245;2209;-67
2021/03/23 06:17:21;;;;;;;;;;;20.20;28.90;;;;;;482140;247;1160;-67
2021/03/23 06:19:22;;;;;;;;;;;20.20;28.90;;;;;;482252;246;1382;-68
2021/03/23 06:21:23;;;;;;;;;;;20.20;28.90;;;;;;482154;247;1187;-67
2021/03/23 06:23:25;;;;;;;;;;;20.20;28.90;;;;;;482095;246;1167;-67
2021/03/23 06:25:26;;;;;;;;;;;20.10;28.90;;;;;;482159;244;1379;-68
2021/03/23 06:27:27;;;;;;;;;;;20.10;28.90;;;;;;482112;246;1510;-68
2021/03/23 06:29:28;;;;;;;;;;;20.20;28.90;;;;;;482290;245;1067;-68
2021/03/23 06:31:30;;;;;;;;;;;20.20;28.90;;;;;;482052;247;1217;-68
2021/03/23 06:33:31;;;;;;;;;;;20.20;28.80;;;;;;482215;246;1222;-67
2021/03/23 06:35:32;;;;;;;;;;;20.20;28.80;;;;;;482119;246;2142;-67
2021/03/23 06:37:34;;;;;;;;;;;20.20;28.90;;;;;;482127;246;1106;-67
2021/03/23 06:39:35;;;;;;;;;;;20.20;28.90;;;;;;482123;246;1090;-67
2021/03/23 06:41:36;;;;;;;;;;;20.30;28.90;;;;;;482063;246;1280;-67
2021/03/23 06:43:37;;;;;;;;;;;20.30;28.90;;;;;;481960;246;1147;-68
2021/03/23 06:45:39;;;;;;;;;;;20.20;28.90;;;;;;481842;247;1094;-67
2021/03/23 06:47:40;;;;;;;;;;;20.30;28.90;;;;;;481846;245;1173;-67
2021/03/23 06:49:41;;;;;;;;;;;20.30;28.90;;;;;;482039;246;1105;-68
2021/03/23 06:51:43;;;;;;;;;;;20.30;28.90;;;;;;482054;247;1091;-68
2021/03/23 06:53:44;;;;;;;;;;;20.30;28.90;;;;;;482079;247;1065;-68
2021/03/23 06:55:46;;;;;;;;;;;20.30;28.90;;;;;;482037;245;2188;-67
2021/03/23 06:57:47;;;;;;;;;;;20.30;29.00;;;;;;482053;246;1144;-68
2021/03/23 06:59:48;;;;;;;;;;;20.30;28.90;;;;;;481909;246;1101;-67
2021/03/23 07:01:49;;;;;;;;;;;20.40;28.90;;;;;;481918;247;1093;-67
2021/03/23 07:03:51;;;;;;;;;;;20.40;28.90;;;;;;482082;247;1324;-68
2021/03/23 07:05:53;;;;;;;;;;;20.40;28.90;;;;;;481953;246;1120;-68
2021/03/23 07:07:54;;;;;;;;;;;20.40;28.90;;;;;;481901;246;1096;-68
2021/03/23 07:09:55;;;;;;;;;;;20.40;28.90;;;;;;481823;246;1066;-68
2021/03/23 07:11:56;;;;;;;;;;;20.50;28.80;;;;;;481874;246;1155;-68
2021/03/23 07:13:58;;;;;;;;;;;20.50;28.80;;;;;;481787;246;1086;-67
2021/03/23 07:15:59;;;;;;;;;;;20.50;28.80;;;;;;481784;246;2150;-68
2021/03/23 07:18:00;;;;;;;;;;;20.50;28.80;;;;;;481865;247;1072;-68
2021/03/23 07:20:02;;;;;;;;;;;20.50;28.80;;;;;;481963;245;1127;-67
2021/03/23 07:22:05;;;;;;;;;;;20.50;28.80;;;;;;481735;246;1165;-68
2021/03/23 07:24:06;;;;;;;;;;;20.60;28.90;;;;;;481501;246;1356;-68
2021/03/23 07:26:07;;;;;;;;;;;20.60;28.80;;;;;;481902;246;1452;-67
2021/03/23 07:28:08;;;;;;;;;;;20.70;28.80;;;;;;481930;247;1191;-67
2021/03/23 07:30:10;;;;;;;;;;;20.70;28.80;;;;;;481828;247;1151;-67
2021/03/23 07:32:11;;;;;;;;;;;20.60;28.80;;;;;;481896;246;1212;-67
2021/03/23 07:34:12;;;;;;;;;;;20.60;28.80;;;;;;481684;246;1091;-68
2021/03/23 07:36:13;;;;;;;;;;;20.70;28.90;;;;;;481548;245;2261;-68
2021/03/23 07:38:15;;;;;;;;;;;20.70;28.90;;;;;;481771;247;1134;-68
2021/03/23 07:40:16;;;;;;;;;;;20.70;28.80;;;;;;481826;247;1110;-68
2021/03/23 07:42:17;;;;;;;;;;;20.70;28.90;;;;;;481892;246;1325;-68
2021/03/23 07:44:18;;;;;;;;;;;20.70;28.80;;;;;;481670;246;1109;-68
2021/03/23 07:46:20;;;;;;;;;;;20.70;28.80;;;;;;481698;246;1208;-68
2021/03/23 07:48:22;;;;;;;;;;;20.80;28.80;;;;;;481791;246;1208;-68
2021/03/23 07:50:22;;;;;;;;;;;20.80;28.80;;;;;;481773;246;1974;-68
2021/03/23 07:52:24;;;;;;;;;;;20.70;28.80;;;;;;481815;247;1056;-68
2021/03/23 07:54:25;;;;;;;;;;;20.70;28.90;;;;;;481715;247;1077;-68
2021/03/23 07:56:26;;;;;;;;;;;20.70;28.90;;;;;;481610;247;2208;-68
2021/03/23 07:58:27;;;;;;;;;;;20.70;28.90;;;;;;481476;246;1193;-68
2021/03/23 08:00:29;;;;;;;;;;;20.80;28.90;;;;;;481614;247;1087;-68
2021/03/23 08:02:30;;;;;;;;;;;20.80;28.80;;;;;;481501;246;1097;-68
2021/03/23 08:04:31;;;;;;;;;;;20.80;28.80;;;;;;481409;247;1312;-67
2021/03/23 08:06:33;;;;;;;;;;;20.80;28.80;;;;;;481557;245;1098;-68
2021/03/23 08:08:34;;;;;;;;;;;20.90;28.80;;;;;;481373;247;1128;-67
2021/03/23 08:10:35;;;;;;;;;;;20.80;28.80;;;;;;481349;246;1096;-68
2021/03/23 08:12:36;;;;;;;;;;;20.90;28.80;;;;;;481565;246;1291;-67
2021/03/23 08:14:38;;;;;;;;;;;20.90;28.90;;;;;;481701;247;1172;-68
2021/03/23 08:16:39;;;;;;;;;;;20.90;28.90;;;;;;481988;245;2180;-68
2021/03/23 08:18:40;;;;;;;;;;;21.00;28.80;;;;;;481693;246;787;-68
2021/03/23 08:20:41;;;;;;;;;;;20.90;28.80;;;;;;481844;246;895;-67
2021/03/23 08:22:43;;;;;;;;;;;20.90;28.80;;;;;;482109;246;1408;-68
2021/03/23 08:24:44;;;;;;;;;;;20.90;28.80;;;;;;481942;245;946;-68
2021/03/23 08:26:45;;;;;;;;;;;20.90;28.90;;;;;;482221;247;1183;-67
2021/03/23 08:28:49;;;;;;;;;;;20.90;28.90;;;;;;481899;246;1083;-68
2021/03/23 08:30:49;;;;;;;;;;;21.00;28.80;;;;;;481717;246;1264;-68
2021/03/23 08:32:50;;;;;;;;;;;21.00;28.80;;;;;;482272;246;922;-67
2021/03/23 08:34:52;;;;;;;;;;;21.10;28.70;;;;;;481786;246;795;-68
2021/03/23 08:36:53;;;;;;;;;;;21.10;28.70;;;;;;481710;247;2201;-67
2021/03/23 08:38:54;;;;;;;;;;;21.00;28.80;;;;;;482191;247;722;-67
2021/03/23 08:40:55;;;;;;;;;;;21.10;28.80;;;;;;481755;247;1076;-68
2021/03/23 08:42:57;;;;;;;;;;;21.10;28.80;;;;;;481682;246;1234;-68
2021/03/23 08:44:58;;;;;;;;;;;21.10;28.80;;;;;;480717;246;1113;-67
2021/03/23 08:46:59;;;;;;;;;;;21.10;28.90;;;;;;481270;246;1287;-67
2021/03/23 08:49:01;;;;;;;;;;;21.10;28.80;;;;;;481636;247;1073;-67
2021/03/23 08:51:02;;;;;;;;;;;21.20;28.90;;;;;;481687;246;1316;-67
2021/03/23 08:53:04;;;;;;;;;;;21.20;28.80;;;;;;481801;246;1144;-67
2021/03/23 08:55:05;;;;;;;;;;;21.10;28.80;;;;;;481559;247;1584;-67
2021/03/23 08:57:06;;;;;;;;;;;21.30;28.80;;;;;;481694;246;2145;-68
2021/03/23 08:59:07;;;;;;;;;;;21.20;28.80;;;;;;481607;247;1189;-67
2021/03/23 09:01:09;;;;;;;;;;;21.30;28.80;;;;;;481760;246;1206;-67
2021/03/23 09:03:10;;;;;;;;;;;21.30;28.70;;;;;;481585;245;1193;-67
2021/03/23 09:05:11;;;;;;;;;;;21.30;28.70;;;;;;481536;245;1176;-67
2021/03/23 09:07:13;;;;;;;;;;;21.30;28.70;;;;;;481629;245;1152;-67
2021/03/23 09:09:14;;;;;;;;;;;21.40;28.70;;;;;;481633;246;1065;-67
2021/03/23 09:11:15;;;;;;;;;;;21.40;28.60;;;;;;481599;246;1081;-67
2021/03/23 09:13:16;;;;;;;;;;;21.40;28.60;;;;;;481649;247;1096;-67
2021/03/23 09:15:19;;;;;;;;;;;21.50;28.50;;;;;;480943;246;1171;-68
2021/03/23 09:17:21;;;;;;;;;;;21.50;28.50;;;;;;480577;246;2200;-67
2021/03/23 09:19:21;;;;;;;;;;;21.60;28.40;;;;;;481410;247;1349;-67
2021/03/23 09:21:23;;;;;;;;;;;21.70;28.30;;;;;;481376;247;1122;-67
2021/03/23 09:23:25;;;;;;;;;;;21.80;28.20;;;;;;481418;247;1258;-67
2021/03/23 09:25:25;;;;;;;;;;;21.90;28.20;;;;;;481393;246;1590;-67
2021/03/23 09:27:26;;;;;;;;;;;21.90;28.10;;;;;;481377;246;1137;-67
2021/03/23 09:29:28;;;;;;;;;;;21.90;28.20;;;;;;481589;247;1227;-67
2021/03/23 09:31:31;;;;;;;;;;;21.90;28.20;;;;;;481503;246;1083;-67
2021/03/23 09:33:31;;;;;;;;;;;22.00;28.20;;;;;;481302;247;1566;-68
2021/03/23 09:35:32;;;;;;;;;;;22.00;28.20;;;;;;481548;246;1237;-67
2021/03/23 09:37:34;;;;;;;;;;;21.90;28.20;;;;;;481481;246;2208;-67
2021/03/23 09:39:35;;;;;;;;;;;21.90;28.30;;;;;;481656;247;1062;-67
2021/03/23 09:41:36;;;;;;;;;;;21.80;28.30;;;;;;482293;247;1028;-67
2021/03/23 09:43:38;;;;;;;;;;;21.80;28.30;;;;;;481821;247;1131;-67
2021/03/23 09:45:39;;;;;;;;;;;21.90;28.30;;;;;;481562;246;1461;-68
2021/03/23 09:47:41;;;;;;;;;;;21.80;28.20;;;;;;482046;246;1161;-67
2021/03/23 09:49:41;;;;;;;;;;;21.80;28.10;;;;;;481605;247;2006;-67
2021/03/23 09:51:42;;;;;;;;;;;21.80;28.10;;;;;;481484;244;1356;-67
2021/03/23 09:53:44;;;;;;;;;;;21.70;28.10;;;;;;482111;246;820;-67
2021/03/23 09:55:45;;;;;;;;;;;21.70;28.10;;;;;;481844;246;947;-68
2021/03/23 09:57:46;;;;;;;;;;;21.70;28.10;;;;;;482283;247;2207;-68
2021/03/23 09:59:48;;;;;;;;;;;21.70;28.10;;;;;;482055;247;1101;-68
2021/03/23 10:01:49;;;;;;;;;;;21.60;28.10;;;;;;482405;244;1211;-68
2021/03/23 10:03:50;;;;;;;;;;;21.60;28.10;;;;;;482371;245;877;-68
2021/03/23 10:05:51;;;;;;;;;;;21.70;28.10;;;;;;481629;247;1246;-68
2021/03/23 10:07:53;;;;;;;;;;;21.60;28.10;;;;;;481455;246;1140;-68
2021/03/23 10:09:54;;;;;;;;;;;21.60;28.00;;;;;;481384;246;1182;-68
2021/03/23 10:11:55;;;;;;;;;;;21.60;28.00;;;;;;481427;246;1101;-67
2021/03/23 10:13:58;;;;;;;;;;;21.60;28.10;;;;;;481573;247;1182;-68
2021/03/23 10:16:00;;;;;;;;;;;21.60;28.00;;;;;;481312;246;1445;-68
2021/03/23 10:18:00;;;;;;;;;;;21.50;27.90;;;;;;481493;246;2213;-67
2021/03/23 10:20:02;;;;;;;;;;;21.50;27.90;;;;;;481668;245;1152;-68
2021/03/23 10:22:03;;;;;;;;;;;21.50;27.90;;;;;;481826;246;1211;-67
2021/03/23 10:24:04;;;;;;;;;;;21.40;27.90;;;;;;482333;247;1025;-67
2021/03/23 10:26:06;;;;;;;;;;;21.50;27.90;;;;;;481886;245;1214;-68
2021/03/23 10:28:07;;;;;;;;;;;21.40;27.80;;;;;;481980;246;1171;-68
2021/03/23 10:30:09;;;;;;;;;;;21.50;27.80;;;;;;481782;245;1216;-68
2021/03/23 10:32:10;;;;;;;;;;;21.50;27.80;;;;;;482167;246;1061;-68
2021/03/23 10:34:11;;;;;;;;;;;21.40;27.80;;;;;;482200;246;1095;-68
2021/03/23 10:36:12;;;;;;;;;;;21.40;27.80;;;;;;481958;246;1284;-67
2021/03/23 10:38:14;;;;;;;;;;;21.50;27.80;;;;;;481361;247;2211;-68
2021/03/23 10:40:15;;;;;;;;;;;21.40;27.80;;;;;;482017;246;1027;-68
2021/03/23 10:42:16;;;;;;;;;;;21.50;27.70;;;;;;481950;247;872;-67
2021/03/23 10:44:18;;;;;;;;;;;21.40;27.60;;;;;;481724;247;1102;-68
2021/03/23 10:46:19;;;;;;;;;;;21.50;27.70;;;;;;481671;247;888;-68
2021/03/23 10:48:20;;;;;;;;;;;21.50;27.60;;;;;;481681;247;972;-67
2021/03/23 10:50:22;;;;;;;;;;;21.50;27.60;;;;;;481494;247;783;-67
2021/03/23 10:52:23;;;;;;;;;;;21.50;27.60;;;;;;482061;246;828;-67
2021/03/23 10:54:24;;;;;;;;;;;21.50;27.60;;;;;;481500;246;711;-67
2021/03/23 10:56:25;;;;;;;;;;;21.50;27.60;;;;;;482086;246;791;-67
2021/03/23 10:58:27;;;;;;;;;;;21.50;27.60;;;;;;481652;247;2188;-67
2021/03/23 11:00:30;;;;;;;;;;;21.50;27.70;;;;;;481578;246;1114;-68
2021/03/23 11:02:29;;;;;;;;;;;21.50;27.60;;;;;;481616;247;1425;-68
2021/03/23 11:04:30;;;;;;;;;;;21.40;27.60;;;;;;482029;247;879;-68
2021/03/23 11:06:32;;;;;;;;;;;21.40;27.70;;;;;;481888;247;1343;-68
2021/03/23 11:08:33;;;;;;;;;;;21.40;27.80;;;;;;481609;246;742;-68
2021/03/23 11:10:35;;;;;;;;;;;21.40;27.70;;;;;;482288;247;849;-68
2021/03/23 11:12:36;;;;;;;;;;;21.40;27.80;;;;;;482485;246;894;-68
2021/03/23 11:14:37;;;;;;;;;;;21.40;27.80;;;;;;482421;245;1174;-68
2021/03/23 11:16:38;;;;;;;;;;;21.40;27.80;;;;;;482017;247;1181;-68
2021/03/23 11:18:39;;;;;;;;;;;21.40;27.80;;;;;;482020;246;2197;-68
2021/03/23 11:20:42;;;;;;;;;;;21.40;27.80;;;;;;481717;246;1326;-68
2021/03/23 11:22:42;;;;;;;;;;;21.40;27.80;;;;;;481849;246;1399;-68
2021/03/23 11:24:43;;;;;;;;;;;21.40;27.80;;;;;;481894;246;881;-68
2021/03/23 11:26:44;;;;;;;;;;;21.40;27.80;;;;;;482355;247;1179;-68
2021/03/23 11:28:46;;;;;;;;;;;21.40;27.80;;;;;;482369;247;978;-67
2021/03/23 11:30:47;;;;;;;;;;;21.50;27.70;;;;;;482108;247;1175;-68
2021/03/23 11:32:49;;;;;;;;;;;21.50;27.70;;;;;;482033;246;1044;-68
2021/03/23 11:34:50;;;;;;;;;;;21.50;27.60;;;;;;482191;246;1009;-67
2021/03/23 11:36:52;;;;;;;;;;;21.50;27.70;;;;;;481610;247;1077;-67
2021/03/23 11:38:53;;;;;;;;;;;21.50;27.70;;;;;;481333;246;2201;-68
2021/03/23 11:40:54;;;;;;;;;;;21.50;27.80;;;;;;481417;245;1559;-67
2021/03/23 11:42:55;;;;;;;;;;;21.60;27.70;;;;;;481974;246;1077;-68
2021/03/23 11:44:56;;;;;;;;;;;21.60;27.70;;;;;;481777;247;1077;-67
2021/03/23 11:46:59;;;;;;;;;;;21.60;27.70;;;;;;481499;246;1053;-67
2021/03/23 11:49:07;;;;;;;;;;;21.60;27.70;;;;;;481691;246;1236;-68
2021/03/23 11:51:00;;;;;;;;;;;21.60;27.70;;;;;;480958;247;1493;-68
2021/03/23 11:53:02;;;;;;;;;;;21.70;27.70;;;;;;481956;246;1052;-67
2021/03/23 11:55:04;;;;;;;;;;;21.70;27.70;;;;;;482076;246;726;-68
2021/03/23 11:57:04;;;;;;;;;;;21.60;27.70;;;;;;481927;247;1264;-68